Two Harbors, Richard B Helgeson Airport (KTWM)

NameRichard B Helgeson Airport
CityTwo Harbors
CountryUnited States
ICAOKTWM
IATA
Altitude327 m
CoordinatesGoogle Map
Live Air TrafficLiveATC.net
METARKTWM 201555Z AUTO 07009G15KT 10SM OVC005 18/13 A3008 RMK AO2
2019-09-20 15:55:00 Wind: East-Northeast (70°) 4.63 m/s - Visibility: 16093.4 m - Temperature: 18 °C - Dew point: 13 °C - Humidity: 72.7% - Pressure: 1018.63 hPa
Statistics

The table below shows the detailed information of all flights to/from Two Harbors, Richard B Helgeson Airport (KTWM).